Aérodrome :
LOGIN :

S'inscrire | Disclaimer

   EN    FR    IT 

 










Légende :    VFR   VFR Marginal   IFR   IFR Intensif   IFR Très Intensif
Visi : 
Plafond : 
>= 8 km
>= 3000ft
5 à 8 km
1000 à 3000 ft
1500m à 5 km
500 à 1000 ft
800 à 1500m
200 à 500 ft
< 800m
< 200 ft
Symboles :   Orages  Brouillard  Fortes neiges  Fortes précipitations  Vent > 20 kt
SIGMETs :   Divers  Orages  Givrage  Turbulence  Onde Orograph.  Cendres Volcan.







- Altitude de l'aérodrome : 62 ft
- Code IATA : TAN


GMTT - Tanger Ibn Batouta

DERNIER METAR :
  • 220000Z 08003KT 5000 FEW010 SCT016 08/07 Q1031 NOSIG

METARs EXPIRÉS :
  • 212330Z 05002KT 5000 FEW010 SCT016 07/06 Q1031 NOSIG
  • 212300Z 00000KT 6000 FEW010 SCT016 07/06 Q1031 NOSIG
  • 212230Z VRB01KT 6000 FEW010 SCT016 08/07 Q1031 NOSIG
  • 212200Z 00000KT 6000 FEW010 SCT016 08/07 Q1031 NOSIG
  • 212130Z 00000KT 6000 FEW010 SCT016 08/07 Q1031 NOSIG

TAF TAF GMTT
Valide du 22 à 00h jusqu'au 23 à 06h UTC


212300Z 2200/2306 07003KT 5000 SCT010 SCT013
TEMPO 2201/2208 VRB02KT 3000 BR SCT008 BKN010
BECMG 2212/2214 24010KT 8000 SCT016
Pas de NOTAMs connus pour ce terrain.



MET'MAP, la Météo Aéronautique d'un coup d'oeil ! - Copyright ORBIFLY Décembre 2007 - Disclaimer

ORBIFLY MET'MAP TEAM :

Programmation & Développement : Alexandra Zaïnal
Conception & Développement : Baudouin d'Aumeries
Co-Programmation & Développement : Marc-Olivier Méhu
Soutien technique & logistique : Manuel Goepfert

Contact : metmap@orbifly.com




SOURCES & CREDITS :

   NOAA